Terminal Aerodrome Forecast
Issued by NWS Grand Forks, ND

Home | Current Version | Previous Version | Graphics & Text | Print | Product List | Glossary On
Versions: 1 2 3 4 5 6 7 8 9 10 11 12 13 14 15 16 17 18 19 20 21
000
FTUS43 KFGF 251400 AAB
TAFGFK
TAF AMD
KGFK 251405Z 2514/2612 26015G25KT P6SM OVC018
     FM251700 27017G27KT P6SM BKN025
     FM252100 29017KT P6SM BKN035
     FM260100 28008KT P6SM SCT040=

USA.gov is the U.S. government's official web portal to all federal, state and local government web resources and services.